KPHX

Phoenix Sky Harbor International Airport

Phoenix, Arizona, USA
METAR KPHX 162351Z 00000KT 10SM SCT150 BKN170 BKN210 19/M04 A3011 RMK AO2 SLP188 T01941039 10200 20161 56004
Observed Flight Rules
Dec-16 @ 23:51 UTC (32 minutes ago) Visual Flight Rules
Visibility Clouds
10 miles
  • Scattered at 15,000' AGL
  • Broken at 17,000' AGL
  • Broken at 21,000' AGL
Temperatures Readings
Current 19°C / 66°F
Dewpoint -4°C / 25°F
Humidity 21%
Altimeter 30.11" Hg
Pressure 1018.8 hPa
Elevation 336
METAR KPHX 162351Z 00000KT 10SM SCT150 BKN170 BKN210 19/M04 A3011 RMK AO2 SLP188 T01941039 10200 20161 56004
Observed Flight Rules
Dec-16 @ 23:51 UTC
(32 minutes ago)
VFR
Clouds
  • Scattered at 15,000' AGL
  • Broken at 17,000' AGL
  • Broken at 21,000' AGL
Temperature Dewpoint
19°C / 66°F -4°C / 25°F
Humidity Altimeter Pressure
21% 30.11" Hg 1018.8 hPa